createdAt,value
2018-09-16T00:01:20.727Z,79.75
2018-09-16T00:04:24.724Z,80.12
2018-09-16T00:07:28.646Z,79.46
2018-09-16T00:10:32.565Z,79.62
2018-09-16T00:13:36.497Z,80.04
2018-09-16T00:16:40.426Z,79.51
2018-09-16T00:19:44.338Z,79.89
2018-09-16T00:22:48.271Z,80.16
2018-09-16T00:25:52.758Z,79.89
2018-09-16T00:28:56.690Z,79.69
2018-09-16T00:32:06.043Z,79.35
2018-09-16T00:35:09.943Z,80.20
2018-09-16T00:38:13.882Z,79.23
2018-09-16T00:41:17.830Z,79.88
2018-09-16T00:44:21.758Z,80.16
2018-09-16T00:47:25.913Z,79.88
2018-09-16T00:50:29.843Z,80.05
2018-09-16T00:53:33.770Z,80.08
2018-09-16T00:56:37.677Z,80.35
2018-09-16T00:59:41.730Z,79.95
2018-09-16T01:02:45.652Z,79.76
2018-09-16T01:05:55.367Z,80.09
2018-09-16T01:08:59.642Z,79.70
2018-09-16T01:12:04.136Z,80.33
2018-09-16T01:15:08.323Z,80.52
2018-09-16T01:18:12.246Z,80.35
2018-09-16T01:21:16.151Z,80.12
2018-09-16T01:24:20.110Z,80.05
2018-09-16T01:27:24.038Z,79.92
2018-09-16T01:30:27.982Z,79.75
2018-09-16T01:33:32.139Z,79.68
2018-09-16T01:36:36.264Z,79.80
2018-09-16T01:39:40.181Z,80.72
2018-09-16T01:42:44.195Z,80.11
2018-09-16T01:45:48.291Z,79.58
2018-09-16T01:48:52.234Z,80.20
2018-09-16T01:51:56.173Z,80.03
2018-09-16T01:55:00.095Z,79.55
2018-09-16T01:58:04.207Z,80.39
2018-09-16T02:01:08.559Z,80.05
2018-09-16T02:04:12.481Z,80.25
2018-09-16T02:07:16.434Z,80.37
2018-09-16T02:10:20.592Z,80.15
2018-09-16T02:13:24.537Z,79.92
2018-09-16T02:16:28.647Z,80.64
2018-09-16T02:19:32.778Z,79.86
2018-09-16T02:22:36.698Z,80.11
2018-09-16T02:25:41.562Z,80.28
2018-09-16T02:28:45.829Z,80.11
2018-09-16T02:31:49.878Z,79.85
2018-09-16T02:34:54.023Z,80.78
2018-09-16T02:37:57.935Z,80.81
2018-09-16T02:41:01.866Z,80.88
2018-09-16T02:44:06.318Z,80.24
2018-09-16T02:47:10.234Z,80.63
2018-09-16T02:50:14.216Z,80.87
2018-09-16T02:53:18.142Z,81.00
2018-09-16T02:56:22.415Z,80.79
2018-09-16T02:59:26.325Z,80.74
2018-09-16T03:02:30.278Z,80.96
2018-09-16T03:05:39.498Z,81.05
2018-09-16T03:08:43.418Z,81.02
2018-09-16T03:11:47.625Z,80.56
2018-09-16T03:14:53.403Z,80.44
2018-09-16T03:17:57.627Z,80.63
2018-09-16T03:21:01.572Z,80.70
2018-09-16T03:24:05.494Z,80.55
2018-09-16T03:27:09.410Z,80.99
2018-09-16T03:30:13.344Z,80.46
2018-09-16T03:33:17.294Z,80.77
2018-09-16T03:36:21.214Z,81.41
2018-09-16T03:39:25.151Z,80.56
2018-09-16T03:42:29.268Z,81.15
2018-09-16T03:45:33.194Z,81.52
2018-09-16T03:48:37.146Z,80.57
2018-09-16T03:51:41.082Z,80.92
2018-09-16T03:54:45.009Z,81.63
2018-09-16T03:57:49.262Z,81.07
2018-09-16T04:00:53.391Z,81.64
2018-09-16T04:03:57.510Z,81.30
2018-09-16T04:07:01.431Z,81.24
2018-09-16T04:10:05.703Z,81.21
2018-09-16T04:13:09.635Z,81.21
2018-09-16T04:16:13.546Z,81.73
2018-09-16T04:19:17.465Z,81.46
2018-09-16T04:22:21.418Z,80.98
2018-09-16T04:25:25.342Z,81.43
2018-09-16T04:28:29.263Z,81.22
2018-09-16T04:31:33.192Z,81.34
2018-09-16T04:34:37.241Z,81.26
2018-09-16T04:37:41.392Z,81.96
2018-09-16T04:40:45.532Z,81.46
2018-09-16T04:43:49.437Z,81.51
2018-09-16T04:46:53.369Z,82.02
2018-09-16T04:49:57.324Z,81.32
2018-09-16T04:53:01.437Z,81.16
2018-09-16T04:56:05.698Z,81.57
2018-09-16T04:59:09.627Z,81.91
2018-09-16T05:02:13.901Z,81.50
2018-09-16T05:05:17.810Z,81.54
2018-09-16T05:08:21.727Z,81.31
2018-09-16T05:11:25.697Z,81.24
2018-09-16T05:14:29.627Z,81.66
2018-09-16T05:17:33.567Z,82.46
2018-09-16T05:20:37.506Z,82.56
2018-09-16T05:23:41.454Z,82.01
2018-09-16T05:26:45.689Z,82.47
2018-09-16T05:29:49.617Z,81.90
2018-09-16T05:32:53.684Z,82.55
2018-09-16T05:35:57.609Z,82.03
2018-09-16T05:39:01.563Z,82.75
2018-09-16T05:42:05.506Z,82.23
2018-09-16T05:45:10.003Z,82.99
2018-09-16T05:48:14.030Z,82.41
2018-09-16T05:51:17.953Z,81.85
2018-09-16T05:54:21.873Z,82.36
2018-09-16T05:57:25.807Z,82.70
2018-09-16T06:00:29.920Z,83.34
2018-09-16T06:03:33.858Z,82.99
2018-09-16T06:06:37.789Z,82.36
2018-09-16T06:09:41.735Z,82.92
2018-09-16T06:12:46.161Z,82.70
2018-09-16T06:15:50.073Z,82.38
2018-09-16T06:18:54.001Z,82.43
2018-09-16T06:21:57.992Z,82.49
2018-09-16T06:25:01.926Z,82.07
2018-09-16T06:28:06.109Z,81.99
2018-09-16T06:31:10.062Z,81.63
2018-09-16T06:34:13.986Z,81.71
2018-09-16T06:37:17.964Z,81.87
2018-09-16T06:40:22.464Z,81.53
2018-09-16T06:43:26.382Z,82.33
2018-09-16T06:46:30.304Z,81.68
2018-09-16T06:49:34.210Z,81.59
2018-09-16T06:52:38.474Z,81.73
2018-09-16T06:55:42.398Z,81.72
2018-09-16T06:58:46.369Z,81.29
2018-09-16T07:01:50.473Z,81.16
2018-09-16T07:04:54.405Z,81.22
2018-09-16T07:07:58.311Z,82.03
2018-09-16T07:11:02.482Z,81.98
2018-09-16T07:14:06.942Z,81.62
2018-09-16T07:17:11.230Z,81.65
2018-09-16T07:20:15.245Z,81.48
2018-09-16T07:23:19.293Z,81.68
2018-09-16T07:26:23.578Z,81.78
2018-09-16T07:29:27.534Z,81.39
2018-09-16T07:32:31.454Z,82.07
2018-09-16T07:35:35.434Z,81.66
2018-09-16T07:38:39.465Z,81.78
2018-09-16T07:41:43.706Z,81.79
2018-09-16T07:44:47.636Z,81.80
2018-09-16T07:47:51.700Z,81.38
2018-09-16T07:50:55.641Z,81.91
2018-09-16T07:53:59.613Z,81.97
2018-09-16T07:57:03.547Z,82.22
2018-09-16T08:00:07.480Z,81.42
2018-09-16T08:03:11.410Z,81.74
2018-09-16T08:06:15.449Z,81.84
2018-09-16T08:09:19.487Z,81.88
2018-09-16T08:12:23.435Z,81.88
2018-09-16T08:15:27.361Z,81.43
2018-09-16T08:18:31.413Z,81.71
2018-09-16T08:21:35.357Z,81.97
2018-09-16T08:24:39.522Z,81.58
2018-09-16T08:27:43.438Z,81.85
2018-09-16T08:30:47.366Z,81.42
2018-09-16T08:33:51.334Z,81.32
2018-09-16T08:36:55.267Z,81.17
2018-09-16T08:39:59.208Z,81.55
2018-09-16T08:43:03.138Z,82.22
2018-09-16T08:46:07.446Z,81.67
2018-09-16T08:49:11.386Z,81.48
2018-09-16T08:52:15.398Z,81.73
2018-09-16T08:55:19.531Z,81.90
2018-09-16T08:58:23.622Z,81.20
2018-09-16T09:01:27.610Z,81.22
2018-09-16T09:04:31.741Z,81.55
2018-09-16T09:07:35.658Z,81.29
2018-09-16T09:10:39.682Z,81.71
2018-09-16T09:13:43.761Z,81.34
2018-09-16T09:16:47.687Z,80.81
2018-09-16T09:19:51.650Z,81.43
2018-09-16T09:22:55.630Z,81.02
2018-09-16T09:26:00.015Z,80.49
2018-09-16T09:29:03.964Z,80.83
2018-09-16T09:32:08.221Z,81.07
2018-09-16T09:35:12.535Z,81.29
2018-09-16T09:38:16.523Z,81.06
2018-09-16T09:41:20.853Z,80.35
2018-09-16T09:44:24.823Z,80.68
2018-09-16T09:47:28.738Z,79.98
2018-09-16T09:50:32.887Z,81.31
2018-09-16T09:53:36.821Z,80.73
2018-09-16T09:56:40.999Z,80.84
2018-09-16T09:59:45.011Z,79.63
2018-09-16T10:02:49.149Z,80.21
2018-09-16T10:05:53.143Z,80.51
2018-09-16T10:08:57.090Z,80.13
2018-09-16T10:12:01.062Z,80.38
2018-09-16T10:15:04.969Z,79.12
2018-09-16T10:18:09.161Z,79.70
2018-09-16T10:21:13.122Z,80.11
2018-09-16T10:24:17.309Z,80.04
2018-09-16T10:27:21.436Z,79.32
2018-09-16T10:30:25.379Z,79.83
2018-09-16T10:33:29.338Z,80.04
2018-09-16T10:36:33.601Z,79.34
2018-09-16T10:39:37.573Z,79.61
2018-09-16T10:42:41.558Z,79.61
2018-09-16T10:45:45.745Z,79.30
2018-09-16T10:48:49.689Z,79.63
2018-09-16T10:51:53.754Z,79.06
2018-09-16T10:54:57.674Z,79.54
2018-09-16T10:58:01.673Z,79.29
2018-09-16T11:01:06.187Z,79.04
2018-09-16T11:04:10.132Z,79.36
2018-09-16T11:07:16.838Z,78.95
2018-09-16T11:10:20.806Z,79.52
2018-09-16T11:13:25.093Z,79.46
2018-09-16T11:16:29.268Z,79.24
2018-09-16T11:19:33.430Z,79.00
2018-09-16T11:22:37.343Z,79.11
2018-09-16T11:25:41.286Z,78.34
2018-09-16T11:28:45.255Z,78.88
2018-09-16T11:31:49.193Z,78.35
2018-09-16T11:34:53.122Z,78.06
2018-09-16T11:37:57.297Z,77.74
2018-09-16T11:41:01.296Z,78.26
2018-09-16T11:44:05.675Z,77.12
2018-09-16T11:47:09.626Z,77.36
2018-09-16T11:50:13.795Z,77.25
2018-09-16T11:53:17.745Z,77.25
2018-09-16T11:56:21.907Z,77.96
2018-09-16T11:59:25.838Z,77.85
2018-09-16T12:02:29.779Z,76.99
2018-09-16T12:05:33.794Z,77.74
2018-09-16T12:08:37.753Z,77.26
2018-09-16T12:11:41.682Z,77.61
2018-09-16T12:14:45.851Z,76.83
2018-09-16T12:17:50.154Z,76.41
2018-09-16T12:20:54.095Z,76.18
2018-09-16T12:23:58.047Z,76.51
2018-09-16T12:27:02.063Z,76.06
2018-09-16T12:30:06.111Z,75.57
2018-09-16T12:33:10.099Z,76.06
2018-09-16T12:36:14.029Z,76.00
2018-09-16T12:39:17.962Z,75.60
2018-09-16T12:42:21.898Z,75.40
2018-09-16T12:45:25.888Z,75.07
2018-09-16T12:48:29.957Z,74.54
2018-09-16T12:51:33.899Z,75.46
2018-09-16T12:54:37.809Z,74.67
2018-09-16T12:57:41.854Z,75.14
2018-09-16T13:00:45.770Z,73.84
2018-09-16T13:03:49.710Z,73.62
2018-09-16T13:06:53.987Z,73.75
2018-09-16T13:09:58.000Z,74.04
2018-09-16T13:13:02.126Z,73.35
2018-09-16T13:16:07.598Z,73.02
2018-09-16T13:19:11.519Z,73.34
2018-09-16T13:22:15.548Z,73.94
2018-09-16T13:25:19.643Z,72.67
2018-09-16T13:28:23.917Z,73.11
2018-09-16T13:31:27.915Z,73.56
2018-09-16T13:34:32.198Z,73.21
2018-09-16T13:37:36.396Z,73.05
2018-09-16T13:40:40.502Z,72.79
2018-09-16T13:43:44.643Z,73.43
2018-09-16T13:46:48.769Z,73.29
2018-09-16T13:49:52.846Z,73.98
2018-09-16T13:52:56.863Z,73.19
2018-09-16T13:56:00.787Z,73.93
2018-09-16T13:59:04.959Z,73.11
2018-09-16T14:02:09.098Z,73.79
2018-09-16T14:05:13.025Z,73.48
2018-09-16T14:08:18.905Z,72.75
2018-09-16T14:11:22.827Z,73.04
2018-09-16T14:14:26.798Z,73.41
2018-09-16T14:17:30.739Z,72.34
2018-09-16T14:20:34.720Z,72.39
2018-09-16T14:23:38.683Z,72.47
2018-09-16T14:26:42.935Z,72.66
2018-09-16T14:29:47.159Z,72.73
2018-09-16T14:32:51.149Z,71.06
2018-09-16T14:35:55.510Z,71.13
2018-09-16T14:38:59.751Z,71.32
2018-09-16T14:42:03.889Z,71.04
2018-09-16T14:45:08.296Z,71.43
2018-09-16T14:48:12.330Z,71.69
2018-09-16T14:51:16.470Z,71.03
2018-09-16T14:54:20.790Z,71.37
2018-09-16T14:57:24.898Z,70.78
2018-09-16T15:00:28.946Z,70.86
2018-09-16T15:03:33.116Z,70.33
2018-09-16T15:06:37.224Z,70.46
2018-09-16T15:09:41.244Z,70.78
2018-09-16T15:12:45.382Z,69.81
2018-09-16T15:15:49.491Z,70.70
2018-09-16T15:18:53.544Z,70.47
2018-09-16T15:21:57.664Z,70.36
2018-09-16T15:25:01.665Z,70.67
2018-09-16T15:28:06.005Z,70.64
2018-09-16T15:31:10.063Z,70.11
2018-09-16T15:34:14.214Z,70.00
2018-09-16T15:37:18.545Z,71.04
2018-09-16T15:40:22.640Z,70.45
2018-09-16T15:43:27.298Z,69.76
2018-09-16T15:46:31.364Z,70.36
2018-09-16T15:49:35.464Z,70.32
2018-09-16T15:52:39.476Z,70.68
2018-09-16T15:55:43.527Z,70.11
2018-09-16T15:58:47.762Z,70.05
2018-09-16T16:01:51.710Z,70.27
2018-09-16T16:04:55.662Z,70.12
2018-09-16T16:07:59.571Z,71.20
2018-09-16T16:11:03.596Z,70.08
2018-09-16T16:14:22.837Z,70.83
2018-09-16T16:17:26.959Z,69.77
2018-09-16T16:31:39.718Z,69.84
2018-09-16T16:34:43.761Z,70.33
2018-09-16T16:37:47.714Z,70.47
2018-09-16T16:40:51.702Z,70.21
2018-09-16T16:43:55.751Z,70.04
2018-09-16T16:46:59.776Z,70.96
2018-09-16T16:50:05.239Z,70.63
2018-09-16T16:53:10.796Z,70.65
2018-09-16T16:56:14.774Z,70.31
2018-09-16T16:59:18.777Z,70.39
2018-09-16T17:02:23.076Z,71.06
2018-09-16T17:05:27.142Z,71.05
2018-09-16T17:08:32.093Z,70.72
2018-09-16T17:11:36.791Z,70.38
2018-09-16T17:14:40.923Z,70.47
2018-09-16T17:17:45.103Z,70.78
2018-09-16T17:20:49.190Z,70.92
2018-09-16T17:23:53.192Z,70.46
2018-09-16T17:26:57.314Z,71.35
2018-09-16T17:30:01.386Z,70.39
2018-09-16T17:33:05.464Z,71.02
2018-09-16T17:36:09.849Z,70.47
2018-09-16T17:39:14.346Z,70.83
2018-09-16T17:42:18.603Z,71.08
2018-09-16T17:45:22.664Z,71.31
2018-09-16T17:48:27.715Z,71.04
2018-09-16T17:51:32.595Z,70.71
2018-09-16T17:54:36.986Z,70.43
2018-09-16T17:57:41.054Z,70.43
2018-09-16T18:00:45.155Z,70.29
2018-09-16T18:03:49.513Z,70.89
2018-09-16T18:06:53.634Z,70.97
2018-09-16T18:09:57.714Z,70.52
2018-09-16T18:13:01.764Z,70.64
2018-09-16T18:16:05.792Z,70.63
2018-09-16T18:19:09.793Z,70.47
2018-09-16T18:22:13.824Z,70.56
2018-09-16T18:25:18.194Z,70.89
2018-09-16T18:28:22.183Z,71.09
2018-09-16T18:31:26.244Z,71.65
2018-09-16T18:34:30.433Z,71.70
2018-09-16T18:37:34.897Z,71.72
2018-09-16T18:40:39.121Z,72.06
2018-09-16T18:43:43.193Z,71.00
2018-09-16T18:46:47.274Z,71.06
2018-09-16T18:49:51.445Z,71.69
2018-09-16T18:52:55.604Z,71.35
2018-09-16T18:55:59.682Z,70.99
2018-09-16T18:59:03.827Z,71.66
2018-09-16T19:02:07.905Z,71.66
2018-09-16T19:05:11.966Z,71.75
2018-09-16T19:08:16.353Z,72.01
2018-09-16T19:11:20.492Z,71.16
2018-09-16T19:14:24.597Z,72.34
2018-09-16T19:17:29.202Z,71.12
2018-09-16T19:20:33.871Z,71.72
2018-09-16T19:23:38.056Z,71.70
2018-09-16T19:26:42.081Z,71.30
2018-09-16T19:29:46.164Z,71.53
2018-09-16T19:32:50.547Z,71.75
2018-09-16T19:35:54.601Z,71.43
2018-09-16T19:38:58.704Z,72.03
2018-09-16T19:42:03.037Z,71.50
2018-09-16T19:45:07.856Z,71.17
2018-09-16T19:48:12.068Z,71.39
2018-09-16T19:51:16.459Z,71.79
2018-09-16T19:54:20.427Z,71.88
2018-09-16T19:57:24.434Z,71.45
2018-09-16T20:00:28.449Z,72.20
2018-09-16T20:03:33.062Z,71.29
2018-09-16T20:06:37.023Z,72.33
2018-09-16T20:09:40.995Z,71.55
2018-09-16T20:12:45.049Z,71.81
2018-09-16T20:15:49.432Z,72.31
2018-09-16T20:18:53.406Z,71.59
2018-09-16T20:21:57.401Z,72.12
2018-09-16T20:25:01.750Z,72.34
2018-09-16T20:28:05.969Z,72.30
2018-09-16T20:31:09.930Z,71.56
2018-09-16T20:34:13.891Z,71.75
2018-09-16T20:37:17.872Z,71.52
2018-09-16T20:40:21.913Z,71.30
2018-09-16T20:43:25.905Z,70.98
2018-09-16T20:46:30.052Z,71.25
2018-09-16T20:49:34.147Z,72.08
2018-09-16T20:52:38.119Z,71.63
2018-09-16T20:55:42.088Z,71.45
2018-09-16T20:58:46.059Z,71.84
2018-09-16T21:01:50.020Z,71.84
2018-09-16T21:04:54.073Z,71.04
2018-09-16T21:07:58.024Z,71.78
2018-09-16T21:11:02.166Z,71.85
2018-09-16T21:14:06.155Z,71.63
2018-09-16T21:17:10.281Z,71.22
2018-09-16T21:20:14.559Z,71.29
2018-09-16T21:23:18.546Z,71.44
2018-09-16T21:26:22.612Z,72.02
2018-09-16T21:29:26.639Z,71.91
2018-09-16T21:32:30.600Z,71.65
2018-09-16T21:35:34.573Z,71.74
2018-09-16T21:38:38.558Z,71.82
2018-09-16T21:41:43.230Z,71.82
2018-09-16T21:44:47.158Z,71.08
2018-09-16T21:47:51.126Z,71.20
2018-09-16T21:50:55.083Z,71.70
2018-09-16T21:53:59.053Z,71.20
2018-09-16T21:57:02.999Z,72.00
2018-09-16T22:00:07.811Z,71.80
2018-09-16T22:03:11.763Z,71.77
2018-09-16T22:06:15.717Z,71.54
2018-09-16T22:09:19.684Z,71.87
2018-09-16T22:12:23.634Z,71.92
2018-09-16T22:15:27.589Z,71.49
2018-09-16T22:18:31.544Z,71.24
2018-09-16T22:21:35.495Z,71.18
2018-09-16T22:24:39.431Z,72.10
2018-09-16T22:27:43.381Z,71.54
2018-09-16T22:30:47.683Z,71.48
2018-09-16T22:33:51.622Z,71.32
2018-09-16T22:36:55.788Z,71.65
2018-09-16T22:39:59.748Z,72.17
2018-09-16T22:43:03.824Z,71.65
2018-09-16T22:46:07.777Z,72.13
2018-09-16T22:49:11.927Z,71.80
2018-09-16T22:52:15.911Z,71.73
2018-09-16T22:55:19.858Z,71.43
2018-09-16T22:58:23.802Z,72.12
2018-09-16T23:01:28.084Z,71.98
2018-09-16T23:04:32.041Z,72.06
2018-09-16T23:07:35.989Z,71.38
2018-09-16T23:10:39.945Z,71.66
2018-09-16T23:13:44.030Z,71.96
2018-09-16T23:16:47.980Z,72.41
2018-09-16T23:19:51.934Z,71.78
2018-09-16T23:22:56.209Z,71.86
2018-09-16T23:26:00.183Z,72.21
2018-09-16T23:29:04.110Z,72.42
2018-09-16T23:32:08.026Z,71.50
2018-09-16T23:35:11.951Z,71.60
2018-09-16T23:38:16.074Z,71.64
2018-09-16T23:41:19.990Z,72.44
2018-09-16T23:44:23.927Z,72.47
2018-09-16T23:47:27.830Z,72.85
2018-09-16T23:50:31.750Z,72.71
2018-09-16T23:53:35.884Z,72.81
2018-09-16T23:56:39.808Z,72.30
2018-09-16T23:59:43.720Z,73.05
